CGAS KLAX-KSAN
Flight info
| Callsign | CGAS |
|---|---|
| Flight time | N/A |
| Altitude | 13000 |
| Route | SLI8 SLI BAYER PACIF MZB |
| Aircraft | PC12/L-SDFGRWY/S |
Departure
| Time | 2026-04-23 01:21 |
|---|---|
| Airport | Los Angeles International Airport (KLAX) |
Arrival
| Time | N/A |
|---|---|
| Airport | San Diego International Airport (KSAN) |
| Time | Latitude | Longitude | Altitude | Speed | Heading |
|---|---|---|---|---|---|
| 2026-04-23 01:06 | 33.94524 | -118.42914 | 122 ft | 0 kts | 263° |
| 2026-04-23 01:13 | 33.94525 | -118.42917 | 122 ft | 1 kts | 285° |
| 2026-04-23 01:13 | 33.94521 | -118.42897 | 122 ft | 7 kts | 119° |
| 2026-04-23 01:13 | 33.94517 | -118.42841 | 122 ft | 8 kts | 85° |
| 2026-04-23 01:13 | 33.94524 | -118.42788 | 122 ft | 6 kts | 79° |
| 2026-04-23 01:14 | 33.94553 | -118.42763 | 122 ft | 5 kts | 352° |
| 2026-04-23 01:14 | 33.94554 | -118.42764 | 122 ft | 0 kts | 352° |
| 2026-04-23 01:14 | 33.94557 | -118.42764 | 122 ft | 4 kts | 352° |
| 2026-04-23 01:14 | 33.94624 | -118.42748 | 122 ft | 17 kts | 44° |
| 2026-04-23 01:15 | 33.94651 | -118.42554 | 122 ft | 31 kts | 82° |
| 2026-04-23 01:15 | 33.94684 | -118.42243 | 122 ft | 43 kts | 86° |
| 2026-04-23 01:15 | 33.94723 | -118.41853 | 122 ft | 50 kts | 86° |
| 2026-04-23 01:15 | 33.94761 | -118.41495 | 120 ft | 31 kts | 81° |
| 2026-04-23 01:16 | 33.94789 | -118.41345 | 122 ft | 10 kts | 81° |
| 2026-04-23 01:16 | 33.94798 | -118.41245 | 122 ft | 11 kts | 88° |
| 2026-04-23 01:16 | 33.94809 | -118.41141 | 122 ft | 12 kts | 81° |
| 2026-04-23 01:16 | 33.94816 | -118.41076 | 122 ft | 15 kts | 83° |
| 2026-04-23 01:17 | 33.94835 | -118.40898 | 122 ft | 23 kts | 82° |
| 2026-04-23 01:17 | 33.94849 | -118.40757 | 121 ft | 19 kts | 83° |
| 2026-04-23 01:17 | 33.94866 | -118.40627 | 122 ft | 23 kts | 78° |
| 2026-04-23 01:17 | 33.94887 | -118.40399 | 122 ft | 21 kts | 79° |
| 2026-04-23 01:18 | 33.94915 | -118.40323 | 122 ft | 0 kts | 46° |
| 2026-04-23 01:19 | 33.94933 | -118.40303 | 121 ft | 10 kts | 37° |
| 2026-04-23 01:19 | 33.94954 | -118.40292 | 120 ft | 5 kts | 7° |
| 2026-04-23 01:20 | 33.94999 | -118.40372 | 122 ft | 21 kts | 263° |
| 2026-04-23 01:20 | 33.94992 | -118.40446 | 122 ft | 31 kts | 265° |
| 2026-04-23 01:20 | 33.94934 | -118.41011 | 122 ft | 100 kts | 264° |
| 2026-04-23 01:20 | 33.94829 | -118.41975 | 383 ft | 129 kts | 263° |
| 2026-04-23 01:21 | 33.94686 | -118.43111 | 915 ft | 143 kts | 262° |
| 2026-04-23 01:21 | 33.94534 | -118.44312 | 1552 ft | 146 kts | 261° |
| 2026-04-23 01:21 | 33.94368 | -118.45543 | 2143 ft | 153 kts | 261° |
| 2026-04-23 01:21 | 33.94205 | -118.46792 | 2898 ft | 143 kts | 263° |
| 2026-04-23 01:22 | 33.94067 | -118.47913 | 3726 ft | 138 kts | 262° |
| 2026-04-23 01:22 | 33.93923 | -118.49041 | 4603 ft | 135 kts | 262° |
| 2026-04-23 01:22 | 33.93778 | -118.50146 | 5323 ft | 135 kts | 263° |
| 2026-04-23 01:22 | 33.93619 | -118.51270 | 5996 ft | 136 kts | 263° |
| 2026-04-23 01:23 | 33.93447 | -118.52386 | 6679 ft | 136 kts | 262° |
| 2026-04-23 01:23 | 33.93266 | -118.53499 | 7315 ft | 135 kts | 262° |
| 2026-04-23 01:23 | 33.93089 | -118.54607 | 7963 ft | 134 kts | 262° |
| 2026-04-23 01:23 | 33.92615 | -118.55587 | 8582 ft | 143 kts | 230° |
| 2026-04-23 01:24 | 33.91664 | -118.56145 | 9030 ft | 170 kts | 197° |
| 2026-04-23 01:24 | 33.90404 | -118.55792 | 9180 ft | 212 kts | 153° |
| 2026-04-23 01:24 | 33.89466 | -118.54237 | 9176 ft | 251 kts | 112° |
| 2026-04-23 01:24 | 33.89079 | -118.52106 | 9193 ft | 270 kts | 100° |
| 2026-04-23 01:25 | 33.88724 | -118.49863 | 9193 ft | 279 kts | 104° |
| 2026-04-23 01:25 | 33.88207 | -118.47577 | 9191 ft | 282 kts | 108° |
| 2026-04-23 01:25 | 33.87643 | -118.45345 | 9196 ft | 283 kts | 108° |
| 2026-04-23 01:25 | 33.87105 | -118.43063 | 9195 ft | 284 kts | 106° |
| 2026-04-23 01:26 | 33.86587 | -118.40775 | 9198 ft | 284 kts | 106° |
| 2026-04-23 01:26 | 33.86059 | -118.38487 | 9181 ft | 284 kts | 107° |
| 2026-04-23 01:26 | 33.85525 | -118.36201 | 9175 ft | 284 kts | 107° |
| 2026-04-23 01:26 | 33.84990 | -118.33910 | 9179 ft | 285 kts | 107° |
| 2026-04-23 01:27 | 33.84456 | -118.31618 | 9182 ft | 285 kts | 107° |
| 2026-04-23 01:27 | 33.83922 | -118.29325 | 9179 ft | 285 kts | 107° |
| 2026-04-23 01:27 | 33.83387 | -118.27033 | 9178 ft | 285 kts | 107° |
| 2026-04-23 01:27 | 33.82850 | -118.24741 | 9192 ft | 285 kts | 107° |
| 2026-04-23 01:28 | 33.82314 | -118.22447 | 9192 ft | 285 kts | 107° |
| 2026-04-23 01:28 | 33.81779 | -118.20160 | 9192 ft | 285 kts | 107° |
| 2026-04-23 01:28 | 33.81242 | -118.17869 | 9186 ft | 284 kts | 107° |
| 2026-04-23 01:28 | 33.80705 | -118.15580 | 9184 ft | 284 kts | 107° |
| 2026-04-23 01:29 | 33.80175 | -118.13323 | 9158 ft | 284 kts | 107° |
| 2026-04-23 01:29 | 33.79527 | -118.11090 | 9138 ft | 282 kts | 119° |
| 2026-04-23 01:29 | 33.78431 | -118.09158 | 9139 ft | 279 kts | 135° |
| 2026-04-23 01:29 | 33.76980 | -118.07654 | 9138 ft | 273 kts | 151° |
| 2026-04-23 01:30 | 33.75300 | -118.06668 | 9144 ft | 267 kts | 167° |
| 2026-04-23 01:30 | 33.73509 | -118.06227 | 9164 ft | 260 kts | 181° |
| 2026-04-23 01:30 | 33.71727 | -118.06305 | 9163 ft | 255 kts | 192° |
| 2026-04-23 01:30 | 33.69953 | -118.06536 | 9168 ft | 257 kts | 192° |
| 2026-04-23 01:31 | 33.68167 | -118.06754 | 9172 ft | 258 kts | 192° |
| 2026-04-23 01:31 | 33.66403 | -118.06973 | 9171 ft | 258 kts | 192° |
| 2026-04-23 01:31 | 33.64615 | -118.07198 | 9178 ft | 259 kts | 192° |
| 2026-04-23 01:31 | 33.62824 | -118.07424 | 9165 ft | 259 kts | 192° |
| 2026-04-23 01:32 | 33.61021 | -118.07494 | 9149 ft | 265 kts | 177° |
| 2026-04-23 01:32 | 33.59250 | -118.06797 | 9173 ft | 274 kts | 158° |
| 2026-04-23 01:32 | 33.57698 | -118.05430 | 9167 ft | 280 kts | 143° |
| 2026-04-23 01:32 | 33.56248 | -118.03869 | 9175 ft | 280 kts | 142° |
| 2026-04-23 01:33 | 33.54793 | -118.02318 | 9177 ft | 280 kts | 143° |
| 2026-04-23 01:33 | 33.53328 | -118.00779 | 9179 ft | 280 kts | 143° |
| 2026-04-23 01:33 | 33.51862 | -117.99238 | 9174 ft | 280 kts | 143° |
| 2026-04-23 01:33 | 33.50397 | -117.97695 | 9180 ft | 280 kts | 143° |
| 2026-04-23 01:34 | 33.48932 | -117.96150 | 9186 ft | 281 kts | 143° |
| 2026-04-23 01:34 | 33.47485 | -117.94628 | 9186 ft | 280 kts | 143° |
| 2026-04-23 01:34 | 33.46100 | -117.93171 | 9186 ft | 280 kts | 143° |
| 2026-04-23 01:36 | 33.44764 | -117.91766 | 9186 ft | 278 kts | 143° |
| 2026-04-23 01:36 | 33.43313 | -117.90240 | 9185 ft | 277 kts | 143° |
| 2026-04-23 01:36 | 33.41867 | -117.88722 | 9170 ft | 276 kts | 143° |
| 2026-04-23 01:36 | 33.40423 | -117.87205 | 9181 ft | 276 kts | 143° |
| 2026-04-23 01:37 | 33.38997 | -117.85709 | 9174 ft | 276 kts | 143° |
| 2026-04-23 01:37 | 33.37551 | -117.84192 | 9176 ft | 276 kts | 143° |
| 2026-04-23 01:37 | 33.36105 | -117.82676 | 9174 ft | 276 kts | 143° |
| 2026-04-23 01:37 | 33.34659 | -117.81160 | 9174 ft | 276 kts | 143° |
| 2026-04-23 01:38 | 33.33213 | -117.79645 | 9178 ft | 276 kts | 143° |
| 2026-04-23 01:38 | 33.31767 | -117.78131 | 9177 ft | 276 kts | 143° |
| 2026-04-23 01:38 | 33.30325 | -117.76622 | 9180 ft | 276 kts | 143° |
| 2026-04-23 01:38 | 33.28897 | -117.75080 | 9175 ft | 277 kts | 137° |
| 2026-04-23 01:39 | 33.27821 | -117.73159 | 9180 ft | 281 kts | 120° |
| 2026-04-23 01:39 | 33.26898 | -117.71097 | 9181 ft | 281 kts | 120° |
| 2026-04-23 01:39 | 33.25966 | -117.69047 | 9184 ft | 281 kts | 121° |
| 2026-04-23 01:39 | 33.25025 | -117.66994 | 9187 ft | 281 kts | 121° |
| 2026-04-23 01:40 | 33.24087 | -117.64945 | 9181 ft | 281 kts | 121° |
| 2026-04-23 01:40 | 33.23150 | -117.62893 | 9180 ft | 281 kts | 121° |
| 2026-04-23 01:40 | 33.22212 | -117.60843 | 9181 ft | 281 kts | 121° |
| 2026-04-23 01:40 | 33.21274 | -117.58793 | 9185 ft | 281 kts | 121° |
| 2026-04-23 01:41 | 33.20335 | -117.56744 | 9182 ft | 281 kts | 121° |
| 2026-04-23 01:41 | 33.19396 | -117.54695 | 9183 ft | 281 kts | 121° |
| 2026-04-23 01:41 | 33.18470 | -117.52676 | 9184 ft | 281 kts | 121° |
| 2026-04-23 01:41 | 33.17531 | -117.50627 | 9187 ft | 281 kts | 121° |
| 2026-04-23 01:42 | 33.16590 | -117.48578 | 9186 ft | 281 kts | 121° |
| 2026-04-23 01:42 | 33.15650 | -117.46531 | 9189 ft | 281 kts | 121° |
| 2026-04-23 01:42 | 33.14695 | -117.44501 | 9188 ft | 280 kts | 124° |
| 2026-04-23 01:42 | 33.13467 | -117.42721 | 9184 ft | 277 kts | 139° |
| 2026-04-23 01:43 | 33.11962 | -117.41323 | 9186 ft | 272 kts | 153° |
| 2026-04-23 01:43 | 33.10282 | -117.40317 | 9176 ft | 269 kts | 160° |
| 2026-04-23 01:43 | 33.08604 | -117.39389 | 9180 ft | 270 kts | 160° |
| 2026-04-23 01:43 | 33.06904 | -117.38436 | 9182 ft | 270 kts | 160° |
| 2026-04-23 01:44 | 33.05205 | -117.37489 | 9179 ft | 269 kts | 160° |
| 2026-04-23 01:44 | 33.03510 | -117.36549 | 9169 ft | 269 kts | 160° |
| 2026-04-23 01:44 | 33.01813 | -117.35607 | 9173 ft | 269 kts | 160° |
| 2026-04-23 01:44 | 33.00117 | -117.34666 | 9173 ft | 269 kts | 160° |
| 2026-04-23 01:45 | 32.98418 | -117.33722 | 9175 ft | 269 kts | 160° |
| 2026-04-23 01:45 | 32.96724 | -117.32782 | 9179 ft | 269 kts | 160° |
| 2026-04-23 01:45 | 32.95026 | -117.31841 | 9182 ft | 269 kts | 160° |
| 2026-04-23 01:45 | 32.93328 | -117.30900 | 9184 ft | 269 kts | 160° |
| 2026-04-23 01:46 | 32.91660 | -117.29971 | 8591 ft | 259 kts | 159° |
| 2026-04-23 01:46 | 32.89989 | -117.29053 | 7368 ft | 271 kts | 159° |
| 2026-04-23 01:46 | 32.88308 | -117.28122 | 6636 ft | 260 kts | 158° |
| 2026-04-23 01:46 | 32.86755 | -117.27255 | 6214 ft | 228 kts | 158° |
| 2026-04-23 01:47 | 32.85342 | -117.26474 | 6161 ft | 229 kts | 158° |
| 2026-04-23 01:47 | 32.83847 | -117.25655 | 6162 ft | 244 kts | 158° |
| 2026-04-23 01:47 | 32.82274 | -117.24786 | 6178 ft | 253 kts | 158° |
| 2026-04-23 01:47 | 32.80664 | -117.23894 | 6179 ft | 256 kts | 158° |
| 2026-04-23 01:48 | 32.79106 | -117.22862 | 6175 ft | 259 kts | 146° |
| 2026-04-23 01:48 | 32.77807 | -117.21377 | 6176 ft | 261 kts | 130° |
| 2026-04-23 01:48 | 32.76844 | -117.19548 | 6176 ft | 261 kts | 118° |
| 2026-04-23 01:48 | 32.75982 | -117.17645 | 6196 ft | 262 kts | 119° |
| 2026-04-23 01:49 | 32.75108 | -117.15747 | 6199 ft | 262 kts | 119° |
| 2026-04-23 01:49 | 32.74235 | -117.13847 | 6203 ft | 262 kts | 119° |
| 2026-04-23 01:49 | 32.73374 | -117.11942 | 6202 ft | 261 kts | 116° |
| 2026-04-23 01:49 | 32.72898 | -117.09866 | 6186 ft | 261 kts | 98° |
| 2026-04-23 01:50 | 32.72653 | -117.07732 | 6190 ft | 261 kts | 96° |
| 2026-04-23 01:50 | 32.72438 | -117.05617 | 6190 ft | 262 kts | 96° |
| 2026-04-23 01:50 | 32.72222 | -117.03471 | 6199 ft | 262 kts | 96° |
| 2026-04-23 01:50 | 32.72010 | -117.01353 | 5917 ft | 247 kts | 96° |
| 2026-04-23 01:51 | 32.71806 | -116.99271 | 4686 ft | 257 kts | 96° |
| 2026-04-23 01:51 | 32.71613 | -116.97208 | 4034 ft | 241 kts | 96° |
| 2026-04-23 01:51 | 32.71434 | -116.95383 | 3877 ft | 202 kts | 96° |
| 2026-04-23 01:51 | 32.71263 | -116.93667 | 3861 ft | 217 kts | 96° |
| 2026-04-23 01:52 | 32.71084 | -116.91842 | 3866 ft | 229 kts | 96° |
| 2026-04-23 01:52 | 32.70895 | -116.89912 | 3878 ft | 240 kts | 96° |
| 2026-04-23 01:52 | 32.70700 | -116.87932 | 3876 ft | 243 kts | 96° |
| 2026-04-23 01:52 | 32.70201 | -116.86024 | 3871 ft | 244 kts | 120° |
| 2026-04-23 01:53 | 32.68906 | -116.84768 | 3840 ft | 245 kts | 160° |
| 2026-04-23 01:53 | 32.67242 | -116.84748 | 3824 ft | 242 kts | 200° |
| 2026-04-23 01:53 | 32.65957 | -116.85946 | 3792 ft | 236 kts | 238° |
| 2026-04-23 01:53 | 32.65253 | -116.87687 | 3824 ft | 233 kts | 249° |
| 2026-04-23 01:54 | 32.64784 | -116.89488 | 3823 ft | 231 kts | 263° |
| 2026-04-23 01:54 | 32.64863 | -116.91378 | 3828 ft | 229 kts | 279° |
| 2026-04-23 01:54 | 32.65114 | -116.93204 | 3842 ft | 217 kts | 281° |
| 2026-04-23 01:54 | 32.65355 | -116.94884 | 3777 ft | 190 kts | 281° |
| 2026-04-23 01:55 | 32.65558 | -116.96333 | 3560 ft | 166 kts | 281° |
| 2026-04-23 01:55 | 32.65728 | -116.97589 | 3400 ft | 142 kts | 281° |
| 2026-04-23 01:55 | 32.65865 | -116.98649 | 3247 ft | 115 kts | 281° |
| 2026-04-23 01:55 | 32.65962 | -116.99483 | 3052 ft | 94 kts | 281° |
| 2026-04-23 01:56 | 32.66042 | -117.00234 | 2864 ft | 90 kts | 281° |
| 2026-04-23 01:56 | 32.66249 | -117.00916 | 2643 ft | 88 kts | 305° |
| 2026-04-23 01:56 | 32.66515 | -117.01570 | 2430 ft | 89 kts | 287° |
| 2026-04-23 01:56 | 32.66844 | -117.02167 | 2164 ft | 90 kts | 320° |
| 2026-04-23 01:57 | 32.67302 | -117.02708 | 2048 ft | 91 kts | 316° |
| 2026-04-23 01:57 | 32.67788 | -117.03297 | 2086 ft | 110 kts | 315° |
| 2026-04-23 01:57 | 32.68355 | -117.03961 | 2073 ft | 113 kts | 317° |
| 2026-04-23 01:57 | 32.68899 | -117.04558 | 2065 ft | 107 kts | 319° |
| 2026-04-23 01:58 | 32.69482 | -117.05173 | 2075 ft | 114 kts | 320° |
| 2026-04-23 01:58 | 32.69980 | -117.05845 | 2068 ft | 103 kts | 305° |
| 2026-04-23 01:58 | 32.70270 | -117.06570 | 2058 ft | 97 kts | 288° |
| 2026-04-23 01:58 | 32.70501 | -117.07359 | 2071 ft | 104 kts | 289° |
| 2026-04-23 01:59 | 32.70720 | -117.08176 | 2071 ft | 102 kts | 289° |
| 2026-04-23 01:59 | 32.70922 | -117.08966 | 2058 ft | 99 kts | 288° |
| 2026-04-23 01:59 | 32.71125 | -117.09781 | 1948 ft | 109 kts | 288° |
| 2026-04-23 01:59 | 32.71323 | -117.10630 | 1701 ft | 104 kts | 286° |
| 2026-04-23 02:00 | 32.71512 | -117.11438 | 1422 ft | 97 kts | 287° |
| 2026-04-23 02:00 | 32.71702 | -117.12176 | 1204 ft | 91 kts | 289° |
| 2026-04-23 02:00 | 32.71888 | -117.12889 | 1015 ft | 90 kts | 288° |
| 2026-04-23 02:00 | 32.72071 | -117.13602 | 873 ft | 90 kts | 286° |
| 2026-04-23 02:01 | 32.72225 | -117.14323 | 730 ft | 92 kts | 285° |
| 2026-04-23 02:01 | 32.72393 | -117.15061 | 629 ft | 94 kts | 285° |
| 2026-04-23 02:01 | 32.72577 | -117.15785 | 493 ft | 90 kts | 286° |
| 2026-04-23 02:01 | 32.72749 | -117.16492 | 330 ft | 89 kts | 285° |
| 2026-04-23 02:02 | 32.72923 | -117.17186 | 204 ft | 86 kts | 286° |
| 2026-04-23 02:02 | 32.73089 | -117.17873 | 90 ft | 87 kts | 285° |
| 2026-04-23 02:02 | 32.73252 | -117.18538 | 31 ft | 77 kts | 287° |
| 2026-04-23 02:02 | 32.73425 | -117.19219 | 228 ft | 95 kts | 288° |
| 2026-04-23 02:03 | 32.73624 | -117.20073 | 648 ft | 127 kts | 299° |
| 2026-04-23 02:03 | 32.74363 | -117.20468 | 1435 ft | 133 kts | 26° |
| 2026-04-23 02:03 | 32.74525 | -117.19329 | 1743 ft | 164 kts | 102° |
| 2026-04-23 02:03 | 32.74213 | -117.18036 | 2099 ft | 169 kts | 106° |
| 2026-04-23 02:04 | 32.73878 | -117.16696 | 2424 ft | 170 kts | 106° |
| 2026-04-23 02:04 | 32.73500 | -117.15333 | 2548 ft | 177 kts | 107° |